createdAt,value
2019-02-19T00:00:28.252Z,18.12
2019-02-19T00:03:58.527Z,15.96
2019-02-19T00:07:28.573Z,15.19
2019-02-19T00:10:58.678Z,14.98
2019-02-19T00:14:28.803Z,14.58
2019-02-19T00:17:58.900Z,15.2
2019-02-19T00:21:28.945Z,14.22
2019-02-19T00:24:59.031Z,14.97
2019-02-19T00:28:29.135Z,15.46
2019-02-19T00:31:59.152Z,13.7
2019-02-19T00:35:29.286Z,15.08
2019-02-19T00:38:59.501Z,14.7
2019-02-19T00:42:29.457Z,13.68
2019-02-19T00:45:59.444Z,13.78
2019-02-19T00:49:29.498Z,14.29
2019-02-19T00:52:59.563Z,15.77
2019-02-19T00:56:29.481Z,14.2
2019-02-19T00:59:59.580Z,14.14
2019-02-19T01:03:29.690Z,14.9
2019-02-19T01:07:01.345Z,15.39
2019-02-19T01:10:31.441Z,14.18
2019-02-19T01:14:01.556Z,17.21
2019-02-19T01:17:31.571Z,14.97
2019-02-19T01:21:01.607Z,16.54
2019-02-19T01:24:31.624Z,18.79
2019-02-19T01:28:01.709Z,18.29
2019-02-19T01:31:31.793Z,18.11
2019-02-19T01:35:02.299Z,16.85
2019-02-19T01:38:32.422Z,17.71
2019-02-19T01:42:02.600Z,17.95
2019-02-19T01:45:34.270Z,21.09
2019-02-19T01:49:04.510Z,22.52
2019-02-19T01:52:34.457Z,21.04
2019-02-19T01:56:04.452Z,18.69
2019-02-19T01:59:34.577Z,21.6
2019-02-19T02:00:15.896Z,20.38
2019-02-19T02:03:45.971Z,18.8
2019-02-19T02:07:17.057Z,19.73
2019-02-19T02:10:47.202Z,22.39
2019-02-19T02:14:17.208Z,20.4
2019-02-19T02:17:47.287Z,19.8
2019-02-19T02:21:17.288Z,20.06
2019-02-19T02:24:47.424Z,20.05
2019-02-19T02:28:17.499Z,21.31
2019-02-19T02:31:47.505Z,21.49
2019-02-19T02:35:17.552Z,21.46
2019-02-19T02:38:47.781Z,20.05
2019-02-19T02:42:17.881Z,18.99
2019-02-19T02:45:53.192Z,19.59
2019-02-19T02:49:23.962Z,18.9
2019-02-19T02:52:54.081Z,20.26
2019-02-19T02:56:24.196Z,19.8
2019-02-19T02:59:54.308Z,19.12
2019-02-19T03:03:24.344Z,23.5
2019-02-19T03:07:05.558Z,22.18
2019-02-19T03:10:36.527Z,19.77
2019-02-19T03:14:06.661Z,21.25
2019-02-19T03:17:36.828Z,19.65
2019-02-19T03:21:06.790Z,20.49
2019-02-19T03:24:36.907Z,20.54
2019-02-19T03:28:07.022Z,20.09
2019-02-19T03:31:37.107Z,21.36
2019-02-19T03:35:07.273Z,21.98
2019-02-19T03:38:37.418Z,20.61
2019-02-19T03:42:07.753Z,20.01
2019-02-19T03:45:37.759Z,19.65
2019-02-19T03:49:07.854Z,19.33
2019-02-19T03:52:37.772Z,18.21
2019-02-19T03:56:07.936Z,20.25
2019-02-19T03:59:38.070Z,22.57
2019-02-19T04:00:15.960Z,24.1
2019-02-19T04:03:46.114Z,23.21
2019-02-19T04:07:16.180Z,23.15
2019-02-19T04:10:47.247Z,23.29
2019-02-19T04:14:17.334Z,22.56
2019-02-19T04:17:47.437Z,21.5
2019-02-19T04:21:17.362Z,22.06
2019-02-19T04:24:47.462Z,20.25
2019-02-19T04:28:17.510Z,25.02
2019-02-19T04:31:47.618Z,22.81
2019-02-19T04:35:17.613Z,22.49
2019-02-19T04:38:47.722Z,22.09
2019-02-19T04:42:17.784Z,23.83
2019-02-19T04:45:47.890Z,23.19
2019-02-19T04:49:17.935Z,20.18
2019-02-19T04:52:48.030Z,22.36
2019-02-19T04:56:18.173Z,23.94
2019-02-19T04:59:48.222Z,22.79
2019-02-19T05:03:18.422Z,23.57
2019-02-19T05:06:48.592Z,24.77
2019-02-19T05:10:18.778Z,25.38
2019-02-19T05:13:49.779Z,23.88
2019-02-19T05:17:19.892Z,21.91
2019-02-19T05:20:49.935Z,24
2019-02-19T05:24:20.041Z,23.46
2019-02-19T05:27:50.194Z,22.38
2019-02-19T05:31:20.271Z,22.59
2019-02-19T05:34:50.400Z,22.52
2019-02-19T05:38:20.479Z,22.9
2019-02-19T05:41:50.716Z,22.73
2019-02-19T05:45:20.722Z,23.06
2019-02-19T05:48:50.767Z,22
2019-02-19T05:52:20.819Z,23.83
2019-02-19T06:09:32.470Z,25.95
2019-02-19T06:13:02.536Z,24.41
2019-02-19T06:16:33.591Z,28.5
2019-02-19T06:20:04.187Z,24.24
2019-02-19T06:23:34.222Z,25.38
2019-02-19T06:27:04.208Z,25.17
2019-02-19T06:30:34.235Z,26.96
2019-02-19T06:34:04.229Z,29.86
2019-02-19T06:37:34.245Z,31.84
2019-02-19T06:41:04.290Z,37.34
2019-02-19T06:44:34.426Z,41.01
2019-02-19T06:48:04.562Z,36.11
2019-02-19T06:51:34.797Z,30.45
2019-02-19T06:55:05.262Z,30.1
2019-02-19T06:58:35.298Z,30.15
2019-02-19T07:02:15.404Z,33.31
2019-02-19T07:05:45.449Z,28.86
2019-02-19T07:09:15.514Z,32.99
2019-02-19T07:12:45.680Z,52.67
2019-02-19T07:16:15.756Z,34.09
2019-02-19T07:19:46.034Z,26.8
2019-02-19T07:23:16.177Z,29.11
2019-02-19T07:26:46.103Z,26.39
2019-02-19T07:30:16.229Z,27.92
2019-02-19T07:33:46.354Z,27.95
2019-02-19T07:37:16.390Z,27.45
2019-02-19T07:40:46.495Z,22.83
2019-02-19T07:44:16.710Z,25.99
2019-02-19T07:47:46.867Z,26.09
2019-02-19T07:51:16.912Z,26.14
2019-02-19T07:54:46.953Z,26.95
2019-02-19T07:58:16.977Z,25.19
2019-02-19T08:00:16.124Z,30.5
2019-02-19T08:03:46.152Z,25.82
2019-02-19T08:07:16.282Z,26.31
2019-02-19T08:10:46.368Z,28.26
2019-02-19T08:14:16.504Z,25.04
2019-02-19T08:17:46.500Z,24.68
2019-02-19T08:21:17.615Z,27.53
2019-02-19T08:24:47.650Z,24.86
2019-02-19T08:28:17.816Z,23.34
2019-02-19T08:31:47.862Z,22.25
2019-02-19T08:35:17.867Z,23.15
2019-02-19T08:38:47.996Z,23.75
2019-02-19T08:42:18.189Z,25.93
2019-02-19T08:45:48.164Z,22.5
2019-02-19T08:49:18.282Z,21.07
2019-02-19T08:52:48.356Z,23.61
2019-02-19T08:56:18.392Z,21.16
2019-02-19T08:59:48.421Z,22.64
2019-02-19T09:03:18.563Z,22.16
2019-02-19T09:06:48.698Z,22.54
2019-02-19T09:10:18.856Z,23.81
2019-02-19T09:13:48.951Z,24.27
2019-02-19T09:17:19.093Z,21.72
2019-02-19T09:20:49.080Z,22.67
2019-02-19T09:24:20.077Z,23.9
2019-02-19T09:28:05.821Z,26.06
2019-02-19T09:31:35.868Z,25.22
2019-02-19T09:35:06.053Z,21.49
2019-02-19T09:38:36.149Z,23.26
2019-02-19T09:42:06.174Z,25.39
2019-02-19T09:45:36.321Z,22.19
2019-02-19T09:49:06.446Z,24.24
2019-02-19T09:52:36.547Z,22.91
2019-02-19T09:56:06.647Z,27.32
2019-02-19T09:59:36.663Z,25.04
2019-02-19T10:28:50.379Z,22.12
2019-02-19T10:32:20.412Z,21.34
2019-02-19T10:35:50.600Z,21.84
2019-02-19T10:39:20.713Z,23.24
2019-02-19T10:42:50.730Z,24.32
2019-02-19T10:46:20.914Z,22.55
2019-02-19T10:49:51.050Z,18.8
2019-02-19T10:53:21.237Z,18.95
2019-02-19T10:56:51.251Z,18.89
2019-02-19T11:00:22.409Z,19
2019-02-19T11:03:52.453Z,17.25
2019-02-19T11:07:22.569Z,19.65
2019-02-19T11:10:52.605Z,16.05
2019-02-19T11:14:22.665Z,15.37
2019-02-19T11:17:52.746Z,19.4
2019-02-19T11:21:22.909Z,18.26
2019-02-19T11:24:54.228Z,19.31
2019-02-19T11:28:24.333Z,21.96
2019-02-19T11:31:54.389Z,22.7
2019-02-19T11:35:24.386Z,21.62
2019-02-19T11:38:54.583Z,22.44
2019-02-19T11:42:24.747Z,23.67
2019-02-19T11:45:54.803Z,21.88
2019-02-19T11:49:24.880Z,24.36
2019-02-19T11:52:54.904Z,21.99
2019-02-19T11:56:24.940Z,23.81
2019-02-19T11:59:54.935Z,24.93
2019-02-19T12:00:17.897Z,25.71
2019-02-19T12:03:47.981Z,23.89
2019-02-19T12:07:18.006Z,25.45
2019-02-19T12:10:48.002Z,28.41
2019-02-19T12:14:18.008Z,23.19
2019-02-19T12:17:48.083Z,22.9
2019-02-19T12:21:18.240Z,23.31
2019-02-19T12:24:48.375Z,21.98
2019-02-19T12:28:19.471Z,22.7
2019-02-19T12:31:49.536Z,25.71
2019-02-19T12:35:19.587Z,19.99
2019-02-19T12:38:49.562Z,19.92
2019-02-19T12:42:19.533Z,27.67
2019-02-19T12:45:49.542Z,21.69
2019-02-19T12:49:19.675Z,20.71
2019-02-19T12:52:49.840Z,25.25
2019-02-19T12:56:19.888Z,25.12
2019-02-19T12:59:56.447Z,28.78
2019-02-19T13:03:26.957Z,27.79
2019-02-19T13:06:57.112Z,24.98
2019-02-19T13:10:27.269Z,23.08
2019-02-19T13:13:57.274Z,24.21
2019-02-19T13:17:27.370Z,24.09
2019-02-19T13:20:57.406Z,19.15
2019-02-19T13:24:27.471Z,18.43
2019-02-19T13:27:57.544Z,27.15
2019-02-19T13:31:27.882Z,24.62
2019-02-19T13:34:57.942Z,27.38
2019-02-19T13:38:28.011Z,26.21
2019-02-19T13:41:58.000Z,28.73
2019-02-19T13:45:28.335Z,23.04
2019-02-19T13:48:58.411Z,25.35
2019-02-19T13:52:36.516Z,22.05
2019-02-19T13:56:06.784Z,26.91
2019-02-19T13:59:36.892Z,25.31
2019-02-19T14:00:19.339Z,25.14
2019-02-19T14:03:49.505Z,25.06
2019-02-19T14:07:19.678Z,25.01
2019-02-19T14:10:49.734Z,23.89
2019-02-19T14:14:28.370Z,23.9
2019-02-19T14:17:58.886Z,27.14
2019-02-19T14:21:48.161Z,25.58
2019-02-19T14:27:47.906Z,29.21
2019-02-19T14:31:28.037Z,30.88
2019-02-19T14:35:08.020Z,28.7
2019-02-19T14:41:27.055Z,38.33
2019-02-19T14:45:13.432Z,31.16
2019-02-19T14:50:07.567Z,34.52
2019-02-19T14:53:57.071Z,27.67
2019-02-19T15:05:00.923Z,29.55
2019-02-19T15:08:43.227Z,35.23
2019-02-19T15:12:21.258Z,39.67
2019-02-19T15:15:58.353Z,33.58
2019-02-19T15:19:44.589Z,33.48
2019-02-19T15:26:15.621Z,29.86
2019-02-19T15:32:27.563Z,32.45
2019-02-19T15:37:16.727Z,44.66
2019-02-19T15:42:32.569Z,47.95
2019-02-19T15:46:42.595Z,39.11
2019-02-19T15:52:45.546Z,49.19
2019-02-19T15:57:28.470Z,35.02
2019-02-19T16:02:42.294Z,37.4
2019-02-19T16:06:36.188Z,30.57
2019-02-19T16:10:18.894Z,33.06
2019-02-19T16:18:47.032Z,33.82
2019-02-19T16:24:46.225Z,45.11
2019-02-19T16:28:25.545Z,24.04
2019-02-19T16:32:04.456Z,27.28
2019-02-19T16:35:43.902Z,28.14
2019-02-19T16:39:28.537Z,29.1
2019-02-19T16:43:56.276Z,32.25
2019-02-19T16:47:36.438Z,41.99
2019-02-19T16:51:21.902Z,31.69
2019-02-19T16:55:05.427Z,37.73
2019-02-19T16:58:45.353Z,34.23
2019-02-19T17:02:52.681Z,38.52
2019-02-19T17:06:31.878Z,27.54
2019-02-19T17:12:37.459Z,31.83
2019-02-19T17:17:24.683Z,27.91
2019-02-19T17:21:33.343Z,30.27
2019-02-19T17:25:17.025Z,35
2019-02-19T17:31:18.811Z,38.67
2019-02-19T17:37:31.282Z,29.31
2019-02-19T17:41:22.768Z,31.44
2019-02-19T17:45:15.763Z,32.99
2019-02-19T17:49:12.608Z,33.58
2019-02-19T17:52:56.213Z,30.59
2019-02-19T17:56:37.218Z,29.05
2019-02-19T18:00:21.620Z,38.29
2019-02-19T18:03:58.554Z,28.31
2019-02-19T18:08:07.847Z,38.95
2019-02-19T18:11:46.998Z,29.31
2019-02-19T18:16:41.208Z,24.64
2019-02-19T18:20:11.218Z,24.05
2019-02-19T18:23:41.267Z,24.65
2019-02-19T18:27:11.353Z,29.64
2019-02-19T18:30:41.426Z,27.21
2019-02-19T18:34:11.412Z,23.85
2019-02-19T18:37:42.379Z,22.49
2019-02-19T18:41:12.459Z,25.9
2019-02-19T18:44:42.534Z,30.05
2019-02-19T18:48:12.707Z,24.9
2019-02-19T18:51:42.976Z,26.15
2019-02-19T18:55:13.024Z,22.46
2019-02-19T18:58:43.290Z,21.44
2019-02-19T19:02:13.430Z,21.79
2019-02-19T19:05:43.455Z,21.49
2019-02-19T19:09:13.438Z,24.7
2019-02-19T19:12:43.549Z,20.94
2019-02-19T19:16:13.636Z,25.36
2019-02-19T19:19:43.743Z,22.2
2019-02-19T19:23:13.861Z,24.58
2019-02-19T19:26:44.010Z,21.46
2019-02-19T19:30:14.204Z,20.23
2019-02-19T19:33:44.300Z,25.96
2019-02-19T19:37:14.299Z,21.25
2019-02-19T19:40:44.646Z,18.95
2019-02-19T19:44:14.601Z,21.99
2019-02-19T19:47:44.808Z,21.38
2019-02-19T19:51:17.264Z,21.09
2019-02-19T19:54:47.692Z,18.88
2019-02-19T19:58:17.771Z,21.05
2019-02-19T20:00:15.886Z,23.98
2019-02-19T20:03:46.003Z,19.26
2019-02-19T20:07:16.150Z,22.89
2019-02-19T20:10:46.241Z,24.52
2019-02-19T20:14:16.624Z,23.06
2019-02-19T20:17:46.712Z,20.3
2019-02-19T20:21:16.734Z,23.23
2019-02-19T20:24:46.806Z,21.57
2019-02-19T20:28:16.922Z,26.8
2019-02-19T20:31:46.907Z,18.99
2019-02-19T20:35:17.097Z,21.38
2019-02-19T20:38:47.073Z,19.02
2019-02-19T20:42:18.212Z,19.84
2019-02-19T20:45:48.282Z,19.11
2019-02-19T20:49:18.484Z,22.05
2019-02-19T20:52:48.524Z,21.15
2019-02-19T20:56:18.519Z,22.54
2019-02-19T20:59:48.705Z,17.6
2019-02-19T21:03:18.861Z,17.89
2019-02-19T21:06:49.090Z,18.79
2019-02-19T21:10:19.235Z,19.14
2019-02-19T21:13:49.552Z,24.57
2019-02-19T21:17:19.708Z,19.75
2019-02-19T21:20:49.816Z,20.33
2019-02-19T21:24:20.083Z,22.31
2019-02-19T21:27:50.180Z,19.77
2019-02-19T21:31:20.367Z,22.99
2019-02-19T21:34:50.493Z,23.83
2019-02-19T21:38:20.730Z,22.14
2019-02-19T21:41:50.927Z,21.69
2019-02-19T21:45:21.308Z,23.48
2019-02-19T21:48:51.431Z,18.49
2019-02-19T21:52:21.628Z,19.54
2019-02-19T21:55:51.785Z,18.96
2019-02-19T21:59:21.952Z,22.39
2019-02-19T22:00:17.621Z,24.61
2019-02-19T22:03:47.787Z,20.94
2019-02-19T22:07:17.943Z,18.38
2019-02-19T22:10:48.039Z,19.49
2019-02-19T22:14:18.150Z,17.46
2019-02-19T22:17:48.297Z,16.61
2019-02-19T22:21:24.301Z,17
2019-02-19T22:24:54.457Z,16.92
2019-02-19T22:28:24.724Z,16.6
2019-02-19T22:31:54.941Z,17.99
2019-02-19T22:35:25.138Z,17.55
2019-02-19T22:38:55.306Z,19.74
2019-02-19T22:42:25.563Z,17.74
2019-02-19T22:45:56.660Z,18.4
2019-02-19T22:49:26.847Z,18.11
2019-02-19T22:52:57.014Z,18.27
2019-02-19T22:56:31.282Z,19.5
2019-02-19T23:00:01.361Z,16.4
2019-02-19T23:03:31.455Z,16.52
2019-02-19T23:07:01.602Z,15.62
2019-02-19T23:10:31.859Z,16.39
2019-02-19T23:14:02.006Z,16.48
2019-02-19T23:17:32.063Z,15.3
2019-02-19T23:21:02.191Z,14.85
2019-02-19T23:24:32.427Z,15.98
2019-02-19T23:28:02.551Z,15.64
2019-02-19T23:31:32.701Z,15.43
2019-02-19T23:35:21.391Z,14.59
2019-02-19T23:38:51.479Z,14.95
2019-02-19T23:42:21.597Z,14.54
2019-02-19T23:45:51.815Z,14.56
2019-02-19T23:49:23.005Z,14.61
2019-02-19T23:52:53.154Z,15.44
2019-02-19T23:56:23.315Z,18.25
2019-02-19T23:59:53.475Z,17.36
